Time;durP1;ratioP1;P1;durP2;ratioP2;P2;SDS_P1;SDS_P2;PMS_P1;PMS_P2;Temp;Humidity;BMP_temperature;BMP_pressure;BME280_temperature;BME280_humidity;BME280_pressure;Samples;Min_cycle;Max_cycle;Signal;HPM_P1;HPM_P2
2022/05/02 00:02:08;;;;;;;;;;;;;;;;;;5073103;28;19908;-48
2022/05/02 00:04:35;;;;;;;;;;;;;;;;;;5073371;28;19936;-48
2022/05/02 00:07:01;;;;;;;;;;;;;;;;;;5072355;28;19931;-49
2022/05/02 00:09:28;;;;;;;;;;;;;;;;;;5072513;28;20002;-49
2022/05/02 00:11:54;;;;;;;;;;;;;;;;;;5073184;28;19908;-46
2022/05/02 00:14:21;;;;;;;;;;;;;;;;;;5072584;28;19909;-49
2022/05/02 00:16:47;;;;;;;;;;;;;;;;;;5072484;28;19912;-54
2022/05/02 00:19:14;;;;;;;;;;;;;;;;;;5072357;28;19916;-56
2022/05/02 00:21:40;;;;;;;;;;;;;;;;;;5072629;28;19909;-46
2022/05/02 00:24:07;;;;;;;;;;;;;;;;;;5072712;28;19916;-47
2022/05/02 00:26:33;;;;;;;;;;;;;;;;;;5072751;28;19978;-50
2022/05/02 00:29:00;;;;;;;;;;;;;;;;;;5072771;28;19905;-44
2022/05/02 00:31:26;;;;;;;;;;;;;;;;;;5072404;28;20411;-54
2022/05/02 00:33:53;;;;;;;;;;;;;;;;;;5072054;28;19938;-50
2022/05/02 00:36:19;;;;;;;;;;;;;;;;;;5072299;28;19915;-44
2022/05/02 00:38:46;;;;;;;;;;;;;;;;;;5072155;28;19948;-45
2022/05/02 00:41:13;;;;;;;;;;;;;;;;;;5072126;28;19962;-51
2022/05/02 00:43:39;;;;;;;;;;;;;;;;;;5072459;28;19943;-54
2022/05/02 00:46:06;;;;;;;;;;;;;;;;;;5072366;28;19999;-48
2022/05/02 00:48:32;;;;;;;;;;;;;;;;;;5072629;28;19908;-48
2022/05/02 00:50:59;;;;;;;;;;;;;;;;;;5072645;28;20323;-55
2022/05/02 00:53:25;;;;;;;;;;;;;;;;;;5072109;28;20326;-54
2022/05/02 00:55:52;;;;;;;;;;;;;;;;;;5072418;28;19949;-53
2022/05/02 00:58:18;;;;;;;;;;;;;;;;;;5072395;28;20348;-51
2022/05/02 01:00:45;;;;;;;;;;;;;;;;;;5071864;28;19913;-53
2022/05/02 01:03:11;;;;;;;;;;;;;;;;;;5072090;28;19931;-43
2022/05/02 01:07:08;;;;;;;;;;;;;;;;;;5071888;28;20005;-43
2022/05/02 01:08:24;;;;;;;;;;;;;;;;;;5071385;28;19962;-50
2022/05/02 01:10:51;;;;;;;;;;;;;;;;;;5070779;28;20264;-44
2022/05/02 01:13:17;;;;;;;;;;;;;;;;;;5072217;28;19943;-47
2022/05/02 01:15:44;;;;;;;;;;;;;;;;;;5072154;28;19912;-53
2022/05/02 01:18:10;;;;;;;;;;;;;;;;;;5071815;28;19908;-45
2022/05/02 01:20:37;;;;;;;;;;;;;;;;;;5072316;28;19909;-45
2022/05/02 01:23:04;;;;;;;;;;;;;;;;;;5072059;28;19909;-45
2022/05/02 01:25:30;;;;;;;;;;;;;;;;;;5071802;28;20261;-48
2022/05/02 01:27:57;;;;;;;;;;;;;;;;;;5072459;28;19919;-44
2022/05/02 01:30:23;;;;;;;;;;;;;;;;;;5071696;28;19923;-48
2022/05/02 01:32:49;;;;;;;;;;;;;;;;;;5071999;28;19919;-54
2022/05/02 01:35:16;;;;;;;;;;;;;;;;;;5071675;28;19908;-43
2022/05/02 01:37:42;;;;;;;;;;;;;;;;;;5070645;28;20007;-48
2022/05/02 01:40:09;;;;;;;;;;;;;;;;;;5071691;28;19916;-46
2022/05/02 01:42:35;;;;;;;;;;;;;;;;;;5072408;28;20035;-47
2022/05/02 01:45:04;;;;;;;;;;;;;;;;;;5075464;28;19909;-53
2022/05/02 01:47:30;;;;;;;;;;;;;;;;;;5075895;28;19912;-42
2022/05/02 01:49:58;;;;;;;;;;;;;;;;;;5076449;28;20298;-43
2022/05/02 01:52:24;;;;;;;;;;;;;;;;;;5075727;28;19916;-48
2022/05/02 01:54:51;;;;;;;;;;;;;;;;;;5075259;28;20002;-48
2022/05/02 01:57:17;;;;;;;;;;;;;;;;;;5075759;28;19912;-48
2022/05/02 01:59:43;;;;;;;;;;;;;;;;;;5075227;28;19928;-44
2022/05/02 02:02:10;;;;;;;;;;;;;;;;;;5075686;28;20421;-46
2022/05/02 02:07:21;;;;;;;;;;;;;;;;;;5075631;28;19927;-49
2022/05/02 02:09:47;;;;;;;;;;;;;;;;;;5075627;28;20295;-54
2022/05/02 02:12:14;;;;;;;;;;;;;;;;;;5075536;28;19909;-49
2022/05/02 02:14:40;;;;;;;;;;;;;;;;;;5075569;28;19912;-53
2022/05/02 02:17:06;;;;;;;;;;;;;;;;;;5074811;28;19912;-49
2022/05/02 02:19:33;;;;;;;;;;;;;;;;;;5075168;28;19913;-48
2022/05/02 02:22:18;;;;;;;;;;;;;;;;;;5075244;28;19909;-45
2022/05/02 02:24:44;;;;;;;;;;;;;;;;;;5075039;28;20363;-43
2022/05/02 02:27:11;;;;;;;;;;;;;;;;;;5074911;28;19916;-45
2022/05/02 02:29:37;;;;;;;;;;;;;;;;;;5074248;28;19976;-50
2022/05/02 02:32:04;;;;;;;;;;;;;;;;;;5075058;28;19909;-48
2022/05/02 02:34:30;;;;;;;;;;;;;;;;;;5074602;28;19915;-53
2022/05/02 02:36:57;;;;;;;;;;;;;;;;;;5075416;28;20057;-47
2022/05/02 02:39:23;;;;;;;;;;;;;;;;;;5075063;28;19916;-47
2022/05/02 02:41:50;;;;;;;;;;;;;;;;;;5074991;28;19908;-50
2022/05/02 02:44:16;;;;;;;;;;;;;;;;;;5074371;28;19908;-46
2022/05/02 02:46:42;;;;;;;;;;;;;;;;;;5074622;28;19909;-50
2022/05/02 02:49:09;;;;;;;;;;;;;;;;;;5074734;28;19912;-47
2022/05/02 02:51:35;;;;;;;;;;;;;;;;;;5074720;28;20366;-47
2022/05/02 02:54:02;;;;;;;;;;;;;;;;;;5074505;28;20267;-53
2022/05/02 02:56:28;;;;;;;;;;;;;;;;;;5074464;28;20263;-49
2022/05/02 02:58:55;;;;;;;;;;;;;;;;;;5074557;28;20251;-48
2022/05/02 03:01:21;;;;;;;;;;;;;;;;;;5066699;28;19954;-44
2022/05/02 03:03:48;;;;;;;;;;;;;;;;;;5055064;28;19909;-49
2022/05/02 03:06:14;;;;;;;;;;;;;;;;;;5054481;28;20728;-51
2022/05/02 03:08:41;;;;;;;;;;;;;;;;;;5054677;28;19916;-47
2022/05/02 03:11:08;;;;;;;;;;;;;;;;;;5054935;28;19920;-47
2022/05/02 03:13:35;;;;;;;;;;;;;;;;;;5053462;28;19908;-42
2022/05/02 03:16:02;;;;;;;;;;;;;;;;;;5053600;28;19909;-54
2022/05/02 03:18:28;;;;;;;;;;;;;;;;;;5053381;28;19913;-49
2022/05/02 03:20:55;;;;;;;;;;;;;;;;;;5054677;28;19916;-52
2022/05/02 03:23:25;;;;;;;;;;;;;;;;;;5054692;28;19909;-48
2022/05/02 03:25:52;;;;;;;;;;;;;;;;;;5054755;28;19908;-54
2022/05/02 03:28:19;;;;;;;;;;;;;;;;;;5054398;28;19909;-50
2022/05/02 03:30:45;;;;;;;;;;;;;;;;;;5054525;28;19924;-52
2022/05/02 03:33:13;;;;;;;;;;;;;;;;;;5054049;28;20000;-51
2022/05/02 03:35:39;;;;;;;;;;;;;;;;;;5052468;28;19909;-49
2022/05/02 03:38:06;;;;;;;;;;;;;;;;;;5052310;28;19912;-49
2022/05/02 03:40:32;;;;;;;;;;;;;;;;;;5054126;28;19916;-51
2022/05/02 03:42:59;;;;;;;;;;;;;;;;;;5053241;28;20267;-54
2022/05/02 03:45:26;;;;;;;;;;;;;;;;;;5053514;28;19909;-58
2022/05/02 03:47:52;;;;;;;;;;;;;;;;;;5052177;28;19909;-44
2022/05/02 03:50:19;;;;;;;;;;;;;;;;;;5052742;28;19920;-50
2022/05/02 03:52:45;;;;;;;;;;;;;;;;;;5053752;28;19909;-50
2022/05/02 03:55:12;;;;;;;;;;;;;;;;;;5053402;28;20314;-52
2022/05/02 03:57:38;;;;;;;;;;;;;;;;;;5054407;28;19974;-55
2022/05/02 04:00:05;;;;;;;;;;;;;;;;;;5053288;28;20004;-48
2022/05/02 04:02:31;;;;;;;;;;;;;;;;;;5052174;28;19912;-51
2022/05/02 04:04:58;;;;;;;;;;;;;;;;;;5051508;28;19996;-47
2022/05/02 04:07:24;;;;;;;;;;;;;;;;;;5053020;28;20433;-54
2022/05/02 04:09:51;;;;;;;;;;;;;;;;;;5052316;28;20007;-53
2022/05/02 04:12:17;;;;;;;;;;;;;;;;;;5052821;28;19944;-53
2022/05/02 04:14:44;;;;;;;;;;;;;;;;;;5053183;28;19909;-51
2022/05/02 04:17:10;;;;;;;;;;;;;;;;;;5053204;28;19909;-50
2022/05/02 04:19:37;;;;;;;;;;;;;;;;;;5053585;28;20004;-52
2022/05/02 04:22:03;;;;;;;;;;;;;;;;;;5053303;28;20256;-55
2022/05/02 04:24:30;;;;;;;;;;;;;;;;;;5052830;28;20289;-54
2022/05/02 04:26:59;;;;;;;;;;;;;;;;;;5052935;28;20348;-56
2022/05/02 04:29:26;;;;;;;;;;;;;;;;;;5052757;28;19940;-55
2022/05/02 04:31:52;;;;;;;;;;;;;;;;;;5052451;28;19917;-51
2022/05/02 04:34:19;;;;;;;;;;;;;;;;;;5052401;28;19944;-56
2022/05/02 04:36:45;;;;;;;;;;;;;;;;;;5052951;28;20382;-50
2022/05/02 04:39:12;;;;;;;;;;;;;;;;;;5052214;28;19916;-54
2022/05/02 04:41:38;;;;;;;;;;;;;;;;;;5066354;28;20371;-55
2022/05/02 04:44:05;;;;;;;;;;;;;;;;;;5072204;28;20240;-55
2022/05/02 04:46:31;;;;;;;;;;;;;;;;;;5072028;28;19915;-55
2022/05/02 04:48:58;;;;;;;;;;;;;;;;;;5071875;28;19988;-59
2022/05/02 04:51:24;;;;;;;;;;;;;;;;;;5072353;28;19924;-56
2022/05/02 04:53:50;;;;;;;;;;;;;;;;;;5071996;28;19908;-53
2022/05/02 04:56:17;;;;;;;;;;;;;;;;;;5072383;28;19916;-56
2022/05/02 04:58:43;;;;;;;;;;;;;;;;;;5071979;28;19916;-52
2022/05/02 05:01:10;;;;;;;;;;;;;;;;;;5072610;28;20042;-48
2022/05/02 05:03:36;;;;;;;;;;;;;;;;;;5067109;28;20244;-56
2022/05/02 05:06:03;;;;;;;;;;;;;;;;;;5052240;28;19920;-55
2022/05/02 05:08:29;;;;;;;;;;;;;;;;;;5051813;28;19928;-54
2022/05/02 05:10:56;;;;;;;;;;;;;;;;;;5052403;28;19917;-53
2022/05/02 05:13:22;;;;;;;;;;;;;;;;;;5052244;28;19925;-46
2022/05/02 05:18:33;;;;;;;;;;;;;;;;;;5054212;28;19916;-49
2022/05/02 05:21:00;;;;;;;;;;;;;;;;;;5056147;28;19915;-48
2022/05/02 05:23:26;;;;;;;;;;;;;;;;;;5056253;28;20419;-55
2022/05/02 05:25:53;;;;;;;;;;;;;;;;;;5055705;28;19927;-56
2022/05/02 05:28:19;;;;;;;;;;;;;;;;;;5055687;28;19970;-54
2022/05/02 05:30:46;;;;;;;;;;;;;;;;;;5056557;28;20007;-47
2022/05/02 05:33:13;;;;;;;;;;;;;;;;;;5056234;28;20326;-57
2022/05/02 05:35:39;;;;;;;;;;;;;;;;;;5056402;28;19909;-54
2022/05/02 05:38:06;;;;;;;;;;;;;;;;;;5055061;28;20279;-57
2022/05/02 05:40:32;;;;;;;;;;;;;;;;;;5055242;28;19932;-54
2022/05/02 05:42:59;;;;;;;;;;;;;;;;;;5055631;28;19962;-57
2022/05/02 05:45:25;;;;;;;;;;;;;;;;;;5055664;28;19916;-54
2022/05/02 05:47:52;;;;;;;;;;;;;;;;;;5063360;28;19926;-55
2022/05/02 05:50:18;;;;;;;;;;;;;;;;;;5075572;28;19917;-53
2022/05/02 05:52:45;;;;;;;;;;;;;;;;;;5076540;28;19909;-49
2022/05/02 05:55:12;;;;;;;;;;;;;;;;;;5075703;28;19909;-49
2022/05/02 05:57:38;;;;;;;;;;;;;;;;;;5076750;28;19913;-49
2022/05/02 06:00:05;;;;;;;;;;;;;;;;;;5076490;28;19911;-48
2022/05/02 06:02:31;;;;;;;;;;;;;;;;;;5076723;28;19914;-50
2022/05/02 06:04:58;;;;;;;;;;;;;;;;;;5076605;28;20003;-49
2022/05/02 06:07:24;;;;;;;;;;;;;;;;;;5076629;28;19971;-49
2022/05/02 06:09:55;;;;;;;;;;;;;;;;;;5067902;28;19961;-53
2022/05/02 06:12:21;;;;;;;;;;;;;;;;;;5055885;28;20260;-51
2022/05/02 06:20:17;;;;;;;;;;;;;;;;;;5054941;28;20371;-51
2022/05/02 06:22:43;;;;;;;;;;;;;;;;;;5055481;28;20224;-51
2022/05/02 06:25:10;;;;;;;;;;;;;;;;;;5055291;28;20008;-48
2022/05/02 06:27:36;;;;;;;;;;;;;;;;;;5055106;28;20383;-44
2022/05/02 06:30:03;;;;;;;;;;;;;;;;;;5053833;28;19970;-52
2022/05/02 06:32:29;;;;;;;;;;;;;;;;;;5054442;28;20375;-49
2022/05/02 06:34:56;;;;;;;;;;;;;;;;;;5056269;28;19916;-44
2022/05/02 06:37:22;;;;;;;;;;;;;;;;;;5074750;28;19909;-56
2022/05/02 06:39:49;;;;;;;;;;;;;;;;;;5075214;28;20007;-52
2022/05/02 06:42:15;;;;;;;;;;;;;;;;;;5074806;28;19915;-54
2022/05/02 06:44:42;;;;;;;;;;;;;;;;;;5074887;28;19913;-52
2022/05/02 06:47:08;;;;;;;;;;;;;;;;;;5075085;28;19909;-44
2022/05/02 06:49:34;;;;;;;;;;;;;;;;;;5073537;28;19928;-49
2022/05/02 06:52:01;;;;;;;;;;;;;;;;;;5074570;28;19916;-51
2022/05/02 06:54:27;;;;;;;;;;;;;;;;;;5074354;28;19916;-49
2022/05/02 06:56:54;;;;;;;;;;;;;;;;;;5074567;28;19908;-51
2022/05/02 06:59:20;;;;;;;;;;;;;;;;;;5074388;28;19908;-53
2022/05/02 07:01:47;;;;;;;;;;;;;;;;;;5073945;28;19912;-56
2022/05/02 07:04:13;;;;;;;;;;;;;;;;;;5073733;28;19908;-50
2022/05/02 07:06:40;;;;;;;;;;;;;;;;;;5073999;28;19921;-46
2022/05/02 07:09:06;;;;;;;;;;;;;;;;;;5073292;28;19995;-53
2022/05/02 07:11:33;;;;;;;;;;;;;;;;;;5073641;28;19924;-46
2022/05/02 07:13:59;;;;;;;;;;;;;;;;;;5074017;28;19915;-46
2022/05/02 07:16:26;;;;;;;;;;;;;;;;;;5073668;28;20239;-54
2022/05/02 07:18:53;;;;;;;;;;;;;;;;;;5073483;28;19909;-52
2022/05/02 07:21:19;;;;;;;;;;;;;;;;;;5073685;28;19915;-53
2022/05/02 07:23:46;;;;;;;;;;;;;;;;;;5074046;28;19998;-54
2022/05/02 07:26:12;;;;;;;;;;;;;;;;;;5073294;28;19914;-51
2022/05/02 07:28:38;;;;;;;;;;;;;;;;;;5073327;28;19912;-44
2022/05/02 07:31:05;;;;;;;;;;;;;;;;;;5073787;28;19916;-47
2022/05/02 07:33:33;;;;;;;;;;;;;;;;;;5073720;28;19980;-51
2022/05/02 07:36:02;;;;;;;;;;;;;;;;;;5073736;28;19958;-42
2022/05/02 07:38:28;;;;;;;;;;;;;;;;;;5073006;28;19909;-51
2022/05/02 07:43:39;;;;;;;;;;;;;;;;;;5072864;28;19995;-54
2022/05/02 07:46:06;;;;;;;;;;;;;;;;;;5073454;28;19995;-51
2022/05/02 07:48:33;;;;;;;;;;;;;;;;;;5073306;28;20317;-52
2022/05/02 07:50:59;;;;;;;;;;;;;;;;;;5073284;28;20379;-52
2022/05/02 07:53:25;;;;;;;;;;;;;;;;;;5073204;28;20300;-45
2022/05/02 07:55:52;;;;;;;;;;;;;;;;;;5072772;28;20360;-49
2022/05/02 07:58:18;;;;;;;;;;;;;;;;;;5072915;28;20275;-48
2022/05/02 08:00:45;;;;;;;;;;;;;;;;;;5073682;28;19940;-52
2022/05/02 08:03:11;;;;;;;;;;;;;;;;;;5073360;28;19908;-50
2022/05/02 08:05:39;;;;;;;;;;;;;;;;;;5072663;28;19931;-45
2022/05/02 08:08:06;;;;;;;;;;;;;;;;;;5072989;28;19962;-50
2022/05/02 08:10:33;;;;;;;;;;;;;;;;;;5072892;28;19924;-49
2022/05/02 08:12:59;;;;;;;;;;;;;;;;;;5073343;28;20347;-50
2022/05/02 08:15:26;;;;;;;;;;;;;;;;;;5067673;28;19920;-44
2022/05/02 08:17:52;;;;;;;;;;;;;;;;;;5053801;28;19956;-48
2022/05/02 08:20:19;;;;;;;;;;;;;;;;;;5053179;28;19943;-46
2022/05/02 08:28:14;;;;;;;;;;;;;;;;;;5053105;28;20386;-50
2022/05/02 08:30:41;;;;;;;;;;;;;;;;;;5053366;28;19920;-40
2022/05/02 08:33:08;;;;;;;;;;;;;;;;;;5052084;28;20339;-49
2022/05/02 08:35:34;;;;;;;;;;;;;;;;;;5053370;28;19913;-41
2022/05/02 08:38:02;;;;;;;;;;;;;;;;;;5053458;28;19909;-47
2022/05/02 08:40:28;;;;;;;;;;;;;;;;;;5053602;28;19947;-49
2022/05/02 08:42:55;;;;;;;;;;;;;;;;;;5053052;28;20077;-50
2022/05/02 08:45:22;;;;;;;;;;;;;;;;;;5053397;28;20005;-51
2022/05/02 08:47:48;;;;;;;;;;;;;;;;;;5052761;28;19916;-46
2022/05/02 08:50:15;;;;;;;;;;;;;;;;;;5052085;28;19923;-46
2022/05/02 08:52:41;;;;;;;;;;;;;;;;;;5052993;28;19916;-49
2022/05/02 08:55:07;;;;;;;;;;;;;;;;;;5052413;28;19913;-45
2022/05/02 08:57:34;;;;;;;;;;;;;;;;;;5053114;28;19915;-47
2022/05/02 09:00:05;;;;;;;;;;;;;;;;;;5052028;28;20360;-47
2022/05/02 09:02:32;;;;;;;;;;;;;;;;;;5052790;28;19908;-45
2022/05/02 09:04:59;;;;;;;;;;;;;;;;;;5052965;28;19916;-48
2022/05/02 09:07:26;;;;;;;;;;;;;;;;;;5052630;28;19920;-50
2022/05/02 09:09:53;;;;;;;;;;;;;;;;;;5052697;28;19916;-49
2022/05/02 09:12:19;;;;;;;;;;;;;;;;;;5052446;28;20323;-47
2022/05/02 09:14:46;;;;;;;;;;;;;;;;;;5052427;28;20007;-47
2022/05/02 09:17:15;;;;;;;;;;;;;;;;;;5052771;28;19916;-47
2022/05/02 09:19:41;;;;;;;;;;;;;;;;;;5052579;28;19931;-53
2022/05/02 09:22:08;;;;;;;;;;;;;;;;;;5052559;28;19913;-43
2022/05/02 09:24:34;;;;;;;;;;;;;;;;;;5068659;28;19908;-51
2022/05/02 09:27:01;;;;;;;;;;;;;;;;;;5072660;28;20051;-50
2022/05/02 09:29:27;;;;;;;;;;;;;;;;;;5072560;28;19913;-46
2022/05/02 09:31:54;;;;;;;;;;;;;;;;;;5072109;28;20425;-48
2022/05/02 09:34:21;;;;;;;;;;;;;;;;;;5072862;28;19962;-43
2022/05/02 09:36:47;;;;;;;;;;;;;;;;;;5072831;28;19918;-50
2022/05/02 09:39:14;;;;;;;;;;;;;;;;;;5067925;28;19962;-53
2022/05/02 09:41:40;;;;;;;;;;;;;;;;;;5052919;28;19909;-46
2022/05/02 09:49:37;;;;;;;;;;;;;;;;;;5053005;28;20425;-50
2022/05/02 09:52:03;;;;;;;;;;;;;;;;;;5052607;28;20444;-49
2022/05/02 09:57:14;;;;;;;;;;;;;;;;;;5051105;28;20023;-49
2022/05/02 09:59:41;;;;;;;;;;;;;;;;;;5068079;28;20007;-54
2022/05/02 10:02:07;;;;;;;;;;;;;;;;;;5072060;28;20292;-40
2022/05/02 10:04:34;;;;;;;;;;;;;;;;;;5074439;28;19912;-47
2022/05/02 10:07:00;;;;;;;;;;;;;;;;;;5076231;28;19990;-45
2022/05/02 10:09:27;;;;;;;;;;;;;;;;;;5075027;28;19920;-46
2022/05/02 10:11:53;;;;;;;;;;;;;;;;;;5075773;28;20355;-43
2022/05/02 10:14:22;;;;;;;;;;;;;;;;;;5075748;28;20261;-45
2022/05/02 10:16:48;;;;;;;;;;;;;;;;;;5075915;28;20366;-48
2022/05/02 10:19:16;;;;;;;;;;;;;;;;;;5075964;28;19908;-46
2022/05/02 10:21:42;;;;;;;;;;;;;;;;;;5076076;28;19954;-49
2022/05/02 10:24:09;;;;;;;;;;;;;;;;;;5075738;28;19920;-52
2022/05/02 10:26:35;;;;;;;;;;;;;;;;;;5075915;28;19908;-51
2022/05/02 10:29:04;;;;;;;;;;;;;;;;;;5075230;28;19916;-45
2022/05/02 10:31:30;;;;;;;;;;;;;;;;;;5076134;28;19923;-53
2022/05/02 10:33:57;;;;;;;;;;;;;;;;;;5075715;28;19909;-55
2022/05/02 10:36:23;;;;;;;;;;;;;;;;;;5075496;28;19912;-54
2022/05/02 10:38:51;;;;;;;;;;;;;;;;;;5075347;28;19988;-53
2022/05/02 10:41:18;;;;;;;;;;;;;;;;;;5075078;28;19913;-57
2022/05/02 10:43:44;;;;;;;;;;;;;;;;;;5075418;28;19909;-57
2022/05/02 10:46:10;;;;;;;;;;;;;;;;;;5074954;28;19916;-54
2022/05/02 10:48:39;;;;;;;;;;;;;;;;;;5075282;28;19920;-52
2022/05/02 10:51:05;;;;;;;;;;;;;;;;;;5075183;28;19916;-47
2022/05/02 10:53:32;;;;;;;;;;;;;;;;;;5074257;28;19908;-47
2022/05/02 10:55:59;;;;;;;;;;;;;;;;;;5074630;28;19999;-47
2022/05/02 10:58:25;;;;;;;;;;;;;;;;;;5074234;28;19915;-50
2022/05/02 11:00:51;;;;;;;;;;;;;;;;;;5074334;28;20007;-45
2022/05/02 11:03:18;;;;;;;;;;;;;;;;;;5074347;28;19909;-49
2022/05/02 11:05:45;;;;;;;;;;;;;;;;;;5073931;28;20019;-46
2022/05/02 11:08:11;;;;;;;;;;;;;;;;;;5074527;28;19916;-53
2022/05/02 11:10:38;;;;;;;;;;;;;;;;;;5074593;28;19927;-51
2022/05/02 11:13:04;;;;;;;;;;;;;;;;;;5073262;28;19983;-42
2022/05/02 11:15:31;;;;;;;;;;;;;;;;;;5074776;28;19915;-44
2022/05/02 11:17:57;;;;;;;;;;;;;;;;;;5074157;28;20003;-53
2022/05/02 11:20:42;;;;;;;;;;;;;;;;;;5074436;28;19959;-45
2022/05/02 11:23:09;;;;;;;;;;;;;;;;;;5074391;28;19908;-45
2022/05/02 11:25:35;;;;;;;;;;;;;;;;;;5074220;28;19909;-55
2022/05/02 11:28:02;;;;;;;;;;;;;;;;;;5074138;28;19915;-48
2022/05/02 11:30:28;;;;;;;;;;;;;;;;;;5074195;28;19916;-48
2022/05/02 11:32:55;;;;;;;;;;;;;;;;;;5074299;28;19909;-44
2022/05/02 11:35:22;;;;;;;;;;;;;;;;;;5074350;28;19919;-50
2022/05/02 11:37:48;;;;;;;;;;;;;;;;;;5074353;28;20355;-51
2022/05/02 11:40:15;;;;;;;;;;;;;;;;;;5073924;28;20294;-53
2022/05/02 11:42:41;;;;;;;;;;;;;;;;;;5074059;28;19915;-54
2022/05/02 11:45:10;;;;;;;;;;;;;;;;;;5074034;28;19913;-50
2022/05/02 11:47:36;;;;;;;;;;;;;;;;;;5074456;28;19962;-45
2022/05/02 11:50:03;;;;;;;;;;;;;;;;;;5074106;28;19916;-51
2022/05/02 11:52:30;;;;;;;;;;;;;;;;;;5073516;28;19975;-49
2022/05/02 11:54:57;;;;;;;;;;;;;;;;;;5072205;28;20022;-48
2022/05/02 11:57:24;;;;;;;;;;;;;;;;;;5073774;28;20321;-46
2022/05/02 11:59:51;;;;;;;;;;;;;;;;;;5073598;28;20256;-49
2022/05/02 12:02:18;;;;;;;;;;;;;;;;;;5073237;28;19916;-51
2022/05/02 12:04:45;;;;;;;;;;;;;;;;;;5054670;28;20008;-48
2022/05/02 12:07:11;;;;;;;;;;;;;;;;;;5053697;28;19924;-49
2022/05/02 12:09:38;;;;;;;;;;;;;;;;;;5053399;28;19919;-49
2022/05/02 12:12:08;;;;;;;;;;;;;;;;;;5052287;28;21325;-50
2022/05/02 12:14:35;;;;;;;;;;;;;;;;;;5053619;28;19909;-50
2022/05/02 12:17:01;;;;;;;;;;;;;;;;;;5053603;28;20227;-50
2022/05/02 12:19:28;;;;;;;;;;;;;;;;;;5071154;28;19920;-55
2022/05/02 12:21:55;;;;;;;;;;;;;;;;;;5073040;28;19909;-44
2022/05/02 12:24:21;;;;;;;;;;;;;;;;;;5072841;28;19916;-53
2022/05/02 12:26:52;;;;;;;;;;;;;;;;;;5072412;28;19912;-51
2022/05/02 12:29:19;;;;;;;;;;;;;;;;;;5073384;28;19908;-56
2022/05/02 12:31:45;;;;;;;;;;;;;;;;;;5073246;28;19999;-54
2022/05/02 12:34:13;;;;;;;;;;;;;;;;;;5073032;28;19909;-49
2022/05/02 12:36:39;;;;;;;;;;;;;;;;;;5073125;28;19915;-53
2022/05/02 12:39:06;;;;;;;;;;;;;;;;;;5072832;28;19915;-54
2022/05/02 12:41:32;;;;;;;;;;;;;;;;;;5072690;28;19954;-52
2022/05/02 12:43:59;;;;;;;;;;;;;;;;;;5073295;28;19915;-55
2022/05/02 12:46:26;;;;;;;;;;;;;;;;;;5072838;28;19913;-57
2022/05/02 12:48:53;;;;;;;;;;;;;;;;;;5073233;28;19909;-52
2022/05/02 12:51:20;;;;;;;;;;;;;;;;;;5072784;28;19923;-55
2022/05/02 12:56:31;;;;;;;;;;;;;;;;;;5072935;28;19966;-50
2022/05/02 13:01:43;;;;;;;;;;;;;;;;;;5033009;28;20315;-56
2022/05/02 13:04:09;;;;;;;;;;;;;;;;;;5032751;28;19963;-47
2022/05/02 13:06:35;;;;;;;;;;;;;;;;;;5032843;28;20024;-47
2022/05/02 13:09:02;;;;;;;;;;;;;;;;;;5032943;28;19955;-49
2022/05/02 13:11:28;;;;;;;;;;;;;;;;;;5047587;28;19922;-49
2022/05/02 13:13:56;;;;;;;;;;;;;;;;;;5071658;28;20351;-53
2022/05/02 13:16:22;;;;;;;;;;;;;;;;;;5072817;28;20414;-48
2022/05/02 13:18:49;;;;;;;;;;;;;;;;;;5073022;28;19909;-53
2022/05/02 13:21:15;;;;;;;;;;;;;;;;;;5072659;28;19959;-50
2022/05/02 13:23:43;;;;;;;;;;;;;;;;;;5073085;28;19908;-50
2022/05/02 13:26:11;;;;;;;;;;;;;;;;;;5072589;28;19974;-54
2022/05/02 13:28:37;;;;;;;;;;;;;;;;;;5073005;28;19920;-54
2022/05/02 13:31:04;;;;;;;;;;;;;;;;;;5072466;28;19913;-54
2022/05/02 13:33:30;;;;;;;;;;;;;;;;;;5073143;28;20001;-51
2022/05/02 13:35:57;;;;;;;;;;;;;;;;;;5072993;28;19915;-49
2022/05/02 13:38:24;;;;;;;;;;;;;;;;;;5072737;28;19996;-46
2022/05/02 13:40:50;;;;;;;;;;;;;;;;;;5076427;28;19908;-52
2022/05/02 13:43:18;;;;;;;;;;;;;;;;;;5076607;28;19909;-48
2022/05/02 13:45:45;;;;;;;;;;;;;;;;;;5076587;28;19927;-51
2022/05/02 13:48:12;;;;;;;;;;;;;;;;;;5076370;28;19995;-44
2022/05/02 13:50:38;;;;;;;;;;;;;;;;;;5062096;28;19921;-51
2022/05/02 13:53:05;;;;;;;;;;;;;;;;;;5057270;28;19909;-51
2022/05/02 13:55:31;;;;;;;;;;;;;;;;;;5056219;28;19909;-50
2022/05/02 13:57:58;;;;;;;;;;;;;;;;;;5056245;28;19936;-53
2022/05/02 14:02:55;;;;;;;;;;;;;;;;;;5056517;28;20008;-52
2022/05/02 14:05:29;;;;;;;;;;;;;;;;;;5056076;28;19920;-53
2022/05/02 14:07:56;;;;;;;;;;;;;;;;;;5056200;28;19913;-48
2022/05/02 14:10:28;;;;;;;;;;;;;;;;;;5075040;28;19919;-44
2022/05/02 14:12:55;;;;;;;;;;;;;;;;;;5076012;28;19912;-44
2022/05/02 14:15:22;;;;;;;;;;;;;;;;;;5076180;28;19909;-50
2022/05/02 14:17:51;;;;;;;;;;;;;;;;;;5075802;28;20003;-41
2022/05/02 14:20:22;;;;;;;;;;;;;;;;;;5075737;28;19916;-53
2022/05/02 14:22:48;;;;;;;;;;;;;;;;;;5075961;28;19908;-48
2022/05/02 14:25:15;;;;;;;;;;;;;;;;;;5075690;28;19962;-50
2022/05/02 14:27:41;;;;;;;;;;;;;;;;;;5075850;28;19918;-52
2022/05/02 14:30:08;;;;;;;;;;;;;;;;;;5075646;28;20355;-47
2022/05/02 14:32:34;;;;;;;;;;;;;;;;;;5075827;28;20271;-52
2022/05/02 14:35:01;;;;;;;;;;;;;;;;;;5074228;28;19909;-48
2022/05/02 14:37:28;;;;;;;;;;;;;;;;;;5075602;28;19956;-52
2022/05/02 14:39:54;;;;;;;;;;;;;;;;;;5075461;28;19948;-46
2022/05/02 14:42:21;;;;;;;;;;;;;;;;;;5064901;28;20746;-52
2022/05/02 14:44:47;;;;;;;;;;;;;;;;;;5055160;28;19945;-54
2022/05/02 14:47:15;;;;;;;;;;;;;;;;;;5055370;28;19928;-48
2022/05/02 14:49:42;;;;;;;;;;;;;;;;;;5055291;28;19917;-45
2022/05/02 14:52:17;;;;;;;;;;;;;;;;;;5055324;28;19924;-46
2022/05/02 14:54:43;;;;;;;;;;;;;;;;;;5055410;28;19909;-49
2022/05/02 14:57:10;;;;;;;;;;;;;;;;;;5055178;28;19963;-51
2022/05/02 14:59:36;;;;;;;;;;;;;;;;;;5055162;28;20368;-48
2022/05/02 15:02:03;;;;;;;;;;;;;;;;;;5055364;28;19916;-49
2022/05/02 15:04:30;;;;;;;;;;;;;;;;;;5054841;28;19909;-56
2022/05/02 15:06:59;;;;;;;;;;;;;;;;;;5055058;28;19925;-51
2022/05/02 15:10:12;;;;;;;;;;;;;;;;;;5054280;28;20354;-55
2022/05/02 15:12:12;;;;;;;;;;;;;;;;;;5054448;28;19923;-51
2022/05/02 15:14:39;;;;;;;;;;;;;;;;;;5053895;28;19931;-55
2022/05/02 15:17:06;;;;;;;;;;;;;;;;;;5054861;28;19923;-51
2022/05/02 15:19:41;;;;;;;;;;;;;;;;;;5053632;28;19909;-49
2022/05/02 15:22:08;;;;;;;;;;;;;;;;;;5054609;28;19912;-44
2022/05/02 15:24:34;;;;;;;;;;;;;;;;;;5054737;28;19908;-51
2022/05/02 15:27:01;;;;;;;;;;;;;;;;;;5054757;28;19909;-49
2022/05/02 15:37:41;;;;;;;;;;;;;;;;;;5054567;28;19912;-49
2022/05/02 15:40:08;;;;;;;;;;;;;;;;;;5054134;28;20288;-54
2022/05/02 15:42:35;;;;;;;;;;;;;;;;;;5070523;28;19908;-51
2022/05/02 15:45:01;;;;;;;;;;;;;;;;;;5074615;28;19966;-52
2022/05/02 15:47:27;;;;;;;;;;;;;;;;;;5074419;28;19967;-52
2022/05/02 15:49:54;;;;;;;;;;;;;;;;;;5074168;28;19961;-53
2022/05/02 15:52:20;;;;;;;;;;;;;;;;;;5073693;28;19923;-56
2022/05/02 15:54:48;;;;;;;;;;;;;;;;;;5074033;28;19909;-51
2022/05/02 15:57:15;;;;;;;;;;;;;;;;;;5074124;28;20279;-48
2022/05/02 15:59:45;;;;;;;;;;;;;;;;;;5073915;28;19915;-52
2022/05/02 16:02:11;;;;;;;;;;;;;;;;;;5073055;28;19909;-53
2022/05/02 16:04:39;;;;;;;;;;;;;;;;;;5072364;28;20278;-47
2022/05/02 16:12:46;;;;;;;;;;;;;;;;;;5073945;28;19938;-49
2022/05/02 16:15:15;;;;;;;;;;;;;;;;;;5073669;28;19931;-49
2022/05/02 16:17:42;;;;;;;;;;;;;;;;;;5073920;28;19909;-52
2022/05/02 16:20:08;;;;;;;;;;;;;;;;;;5072645;28;19992;-52
2022/05/02 16:22:34;;;;;;;;;;;;;;;;;;5073298;28;19912;-48
2022/05/02 16:25:03;;;;;;;;;;;;;;;;;;5073075;28;19908;-52
2022/05/02 16:27:30;;;;;;;;;;;;;;;;;;5073676;28;20380;-55
2022/05/02 16:29:56;;;;;;;;;;;;;;;;;;5073794;28;19908;-55
2022/05/02 16:32:23;;;;;;;;;;;;;;;;;;5073245;28;20023;-48
2022/05/02 16:34:50;;;;;;;;;;;;;;;;;;5072807;28;19915;-50
2022/05/02 16:37:16;;;;;;;;;;;;;;;;;;5073504;28;19916;-54
2022/05/02 16:39:43;;;;;;;;;;;;;;;;;;5073631;28;19911;-52
2022/05/02 16:42:13;;;;;;;;;;;;;;;;;;5073384;28;19908;-57
2022/05/02 16:44:40;;;;;;;;;;;;;;;;;;5073240;28;19946;-54
2022/05/02 16:47:06;;;;;;;;;;;;;;;;;;5073325;28;20382;-55
2022/05/02 16:49:32;;;;;;;;;;;;;;;;;;5073340;28;20435;-55
2022/05/02 16:51:59;;;;;;;;;;;;;;;;;;5073089;28;20355;-57
2022/05/02 16:54:26;;;;;;;;;;;;;;;;;;5072912;28;20003;-54
2022/05/02 16:56:53;;;;;;;;;;;;;;;;;;5073263;28;20390;-56
2022/05/02 16:59:20;;;;;;;;;;;;;;;;;;5073116;28;20003;-53
2022/05/02 17:01:46;;;;;;;;;;;;;;;;;;5073195;28;20096;-51
2022/05/02 17:04:13;;;;;;;;;;;;;;;;;;5065548;28;19920;-50
2022/05/02 17:06:41;;;;;;;;;;;;;;;;;;5052924;28;20418;-52
2022/05/02 17:09:08;;;;;;;;;;;;;;;;;;5052927;28;19913;-55
2022/05/02 17:11:35;;;;;;;;;;;;;;;;;;5052752;28;19916;-49
2022/05/02 17:14:01;;;;;;;;;;;;;;;;;;5058071;28;19915;-51
2022/05/02 17:16:28;;;;;;;;;;;;;;;;;;5059235;28;19938;-48
2022/05/02 17:18:54;;;;;;;;;;;;;;;;;;5074055;28;19908;-51
2022/05/02 17:21:21;;;;;;;;;;;;;;;;;;5079840;28;19909;-48
2022/05/02 17:23:47;;;;;;;;;;;;;;;;;;5079475;28;19912;-49
2022/05/02 17:26:14;;;;;;;;;;;;;;;;;;5079490;28;19908;-53
2022/05/02 17:28:40;;;;;;;;;;;;;;;;;;5079625;28;19908;-55
2022/05/02 17:31:07;;;;;;;;;;;;;;;;;;5079497;28;19916;-55
2022/05/02 17:33:33;;;;;;;;;;;;;;;;;;5079195;28;19908;-56